Em Athens — V7US8 — position and weather

sailwx.info

Track history (hours):
 
Tides and Currents Weather Stations Pressure Air Temp Water Temp Dewpoint Dewpoint Depression Visibility Wind Speed Wind Dir Waves Ship Positions

Em Athens

Last reported at 2015-Aug-02 21:19 UTC. Time now 2015-Aug-03 21:21 UTC.
Position N 34°25' E 020°28'.

Length 207 m; draft 10.6 m.

Type: Ship (hazmat cat C). MMSI: 538004019.

Date/timePositionNaut miles runAvg speedWind from/ knotsBaromVisibWave heightAir tempDewpointWater temp
2015-Aug-02 21:19N 34°25' E 020°28'14015.4
2015-Aug-02 12:12N 35°18' E 017°50'1015.5
2015-Aug-02 11:32N 35°22' E 017°38'1515.8
2015-Aug-02 10:33N 35°28' E 017°21'1616.0
2015-Aug-02 09:33N 35°34' E 017°03'1616.0
2015-Aug-02 08:33N 35°40' E 016°45'1615.9
2015-Aug-02 07:33N 35°46' E 016°26'1515.5
2015-Aug-02 06:33N 35°52' E 016°09'1615.6
2015-Aug-02 05:33N 35°58' E 015°51'3515.7
2015-Aug-02 03:17N 36°11' E 015°10'1216.2
2015-Aug-02 02:33N 36°16' E 014°57'1716.6
2015-Aug-02 01:33N 36°22' E 014°38'1716.7
2015-Aug-02 00:33N 36°30' E 014°19'1716.6
2015-Aug-01 23:33N 36°39' E 014°02'1716.8
2015-Aug-01 22:33N 36°48' E 013°44'1717.4
2015-Aug-01 21:33N 36°58' E 013°26'1717.0
2015-Aug-01 20:33N 37°06' E 013°08'1717.1
2015-Aug-01 19:33N 37°16' E 012°50'1716.7
2015-Aug-01 18:33N 37°25' E 012°33'1616.0
2015-Aug-01 17:33N 37°33' E 012°15'1615.5
2015-Aug-01 16:33N 37°42' E 011°59'1615.7
2015-Aug-01 15:33N 37°50' E 011°42'1515.2
2015-Aug-01 14:33N 37°59' E 011°26'1515.2
2015-Aug-01 13:33N 38°07' E 011°10'1615.8
2015-Aug-01 12:33N 38°15' E 010°53'2015.9
2015-Aug-01 11:16N 38°26' E 010°31'1515.6
2015-Aug-01 10:17N 38°35' E 010°14'1315.0
2015-Aug-01 09:26N 38°41' E 010°00'1315.1
2015-Aug-01 08:33N 38°49' E 009°46'1515.0
2015-Aug-01 07:33N 38°56' E 009°30'1616.0
2015-Aug-01 06:33N 39°05' E 009°12'10 9.9
2015-Aug-01 05:33N 39°13' E 009°04'0 0.0
2015-Aug-01 04:33N 39°13' E 009°04'0 0.0
2015-Aug-01 03:33N 39°13' E 009°04'0 0.0
2015-Aug-01 02:33N 39°13' E 009°04'0 0.0
2015-Aug-01 01:33N 39°13' E 009°04'0 0.0
2015-Aug-01 00:33N 39°13' E 009°04'0 0.0
2015-Jul-31 23:33N 39°13' E 009°04'0 0.0
2015-Jul-31 22:33N 39°13' E 009°04'0 0.0
2015-Jul-31 21:33N 39°13' E 009°04'0 0.0
2015-Jul-31 20:33N 39°13' E 009°04'0 0.0
2015-Jul-31 19:33N 39°13' E 009°04'0 0.0
2015-Jul-31 18:33N 39°13' E 009°04'0 0.0
2015-Jul-31 17:33N 39°13' E 009°04'0 0.0
2015-Jul-31 16:33N 39°13' E 009°04'0 0.0
2015-Jul-31 15:33N 39°13' E 009°04'0 0.0
2015-Jul-31 11:33N 39°13' E 009°04'0 0.0
2015-Jul-31 10:33N 39°13' E 009°04'0 0.0
2015-Jul-31 09:33N 39°13' E 009°04'0 0.0
2015-Jul-31 08:33N 39°13' E 009°04'0 0.0
2015-Jul-31 06:15N 39°13' E 009°04'0 0.0
2015-Jul-31 05:33N 39°13' E 009°04'0 0.0
2015-Jul-31 04:33N 39°13' E 009°04'0 0.0
2015-Jul-31 03:33N 39°13' E 009°04'0 0.0
2015-Jul-31 02:33N 39°13' E 009°04'7 6.8
2015-Jul-31 01:33N 39°07' E 009°08'1313.4
2015-Jul-31 00:33N 39°01' E 009°24'1312.6
2015-Jul-30 23:33N 39°01' E 009°40'7113.6
2015-Jul-30 18:21N 39°28' E 011°04'5414.2
2015-Jul-30 14:32N 39°49' E 012°09'7714.8
2015-Jul-30 09:20N 40°18' E 013°43'1315.5
2015-Jul-30 08:32N 40°22' E 013°58'1615.7
2015-Jul-30 07:32N 40°29' E 014°17'1615.6
2015-Jul-30 06:31N 40°34' E 014°36'14 0.9
2015-Jul-29 15:33N 40°35' E 014°18'1515.0
2015-Jul-29 14:33N 40°50' E 014°17'0 0.5
2015-Jul-29 13:31N 40°50' E 014°17'0 0.0
2015-Jul-29 12:07N 40°50' E 014°17'0 0.0
2015-Jul-29 11:28N 40°50' E 014°17'0 0.0
2015-Jul-29 10:28N 40°50' E 014°17'0 0.0
2015-Jul-29 09:28N 40°50' E 014°17'0 0.0
2015-Jul-29 08:31N 40°50' E 014°17'0 0.1
2015-Jul-29 07:18N 40°50' E 014°17'2 3.2
2015-Jul-29 06:33N 40°48' E 014°16'9 8.9
2015-Jul-29 05:33N 40°42' E 014°08'2016.1
2015-Jul-29 04:20N 40°41' E 013°41'1317.0
2015-Jul-29 03:32N 40°43' E 013°24'17016.7
2015-Jul-28 17:22N 42°28' E 010°25'2815.4
2015-Jul-28 15:33N 42°52' E 010°04'1817.5
2015-Jul-28 14:33N 43°09' E 010°09'1716.6
2015-Jul-28 13:33N 43°25' E 010°12'1010.0
2015-Jul-28 12:33N 43°34' E 010°18'1 0.6
2015-Jul-28 11:32N 43°35' E 010°18'0 0.0
2015-Jul-28 10:32N 43°35' E 010°18'0 0.0
2015-Jul-28 09:32N 43°35' E 010°18'0 0.0
2015-Jul-28 08:32N 43°35' E 010°18'0 0.0
2015-Jul-28 07:32N 43°35' E 010°18'0 0.0
2015-Jul-28 06:32N 43°35' E 010°18'0 0.0
2015-Jul-28 05:32N 43°35' E 010°18'1 0.9
2015-Jul-28 04:33N 43°34' E 010°18'7 7.1
2015-Jul-28 03:33N 43°28' E 010°12'1414.3
2015-Jul-28 02:33N 43°18' E 009°58'8 8.4
2015-Jul-28 01:33N 43°13' E 009°49'5 4.6
2015-Jul-28 00:33N 43°17' E 009°47'4 4.1
2015-Jul-27 23:33N 43°21' E 009°45'4 4.0
2015-Jul-27 22:33N 43°25' E 009°42'4 4.0
2015-Jul-27 21:33N 43°29' E 009°40'5 4.7
2015-Jul-27 20:33N 43°33' E 009°37'1515.3
2015-Jul-27 19:33N 43°46' E 009°26'1615.6
2015-Jul-27 18:33N 43°58' E 009°13'1615.7
2015-Jul-27 17:33N 44°10' E 008°59'1515.4
2015-Jul-27 16:33N 44°21' E 008°44'4 4.2
2015-Jul-27 15:31N 44°25' E 008°47'0 0.0
2015-Jul-27 14:31N 44°25' E 008°47'0 0.0
2015-Jul-27 13:31N 44°25' E 008°47'0 0.0
2015-Jul-27 12:31N 44°25' E 008°47'0 0.0
2015-Jul-27 11:25N 44°25' E 008°47'0 0.0
2015-Jul-27 10:31N 44°25' E 008°47'0 0.0
2015-Jul-27 09:31N 44°25' E 008°47'0 0.0
2015-Jul-27 08:31N 44°25' E 008°47'0 0.0
2015-Jul-27 07:31N 44°25' E 008°47'0 0.0
2015-Jul-27 06:31N 44°25' E 008°47'0 0.0
2015-Jul-27 05:31N 44°25' E 008°47'0 0.0
2015-Jul-27 04:31N 44°25' E 008°47'0 0.1
2015-Jul-27 03:33N 44°25' E 008°47'7 7.4
2015-Jul-27 02:33N 44°18' E 008°48'1717.2
2015-Jul-27 01:34N 44°03' E 008°60'30416.0
2015-Jul-26 06:31N 38°59' E 009°32'1717.8
2015-Jul-26 05:33N 39°06' E 009°12'9 8.9
2015-Jul-26 04:32N 39°13' E 009°04'0 0.0
2015-Jul-26 03:32N 39°13' E 009°04'0 0.0
2015-Jul-26 02:32N 39°13' E 009°04'0 0.0
2015-Jul-26 01:32N 39°13' E 009°04'0 0.0
2015-Jul-26 00:32N 39°13' E 009°04'0 0.0
2015-Jul-25 23:32N 39°13' E 009°04'0 0.0
2015-Jul-25 22:32N 39°13' E 009°04'0 0.0
2015-Jul-25 21:32N 39°13' E 009°04'0 0.0
2015-Jul-25 20:32N 39°13' E 009°04'0 0.0
2015-Jul-25 19:32N 39°13' E 009°04'0 0.0
2015-Jul-25 18:32N 39°13' E 009°04'0 0.0
2015-Jul-25 17:32N 39°13' E 009°04'0 0.0
2015-Jul-25 16:32N 39°13' E 009°04'0 0.0
2015-Jul-25 15:32N 39°13' E 009°04'0 0.0
2015-Jul-25 14:32N 39°13' E 009°04'0 0.0
2015-Jul-25 13:32N 39°13' E 009°04'0 0.0
2015-Jul-25 12:32N 39°13' E 009°04'0 0.0
2015-Jul-25 11:32N 39°13' E 009°04'0 0.1
2015-Jul-25 10:33N 39°13' E 009°04'5 5.2
2015-Jul-25 09:34N 39°08' E 009°07'1313.3
2015-Jul-25 08:33N 39°00' E 009°21'16116.1
2015-Jul-24 22:33N 37°34' E 012°14'1616.3
2015-Jul-24 21:33N 37°25' E 012°32'1616.2
2015-Jul-24 20:33N 37°17' E 012°49'1615.8
2015-Jul-24 19:33N 37°08' E 013°06'1615.9
2015-Jul-24 18:33N 36°60' E 013°22'1615.7
2015-Jul-24 17:33N 36°52' E 013°40'1615.8
2015-Jul-24 16:33N 36°44' E 013°57'1616.0
2015-Jul-24 15:33N 36°37' E 014°14'1615.8
2015-Jul-24 14:33N 36°29' E 014°32'1615.6
2015-Jul-24 13:31N 36°24' E 014°51'  
Track history (hours):
 
Tides and Currents Weather Stations Pressure Air Temp Water Temp Dewpoint Dewpoint Depression Visibility Wind Speed Wind Dir Waves Ship Positions

Em Athens

Last reported at 2015-Aug-02 21:19 UTC. Time now 2015-Aug-03 21:21 UTC.
Position N 34°25' E 020°28'.

Length 207 m; draft 10.6 m.

Type: Ship (hazmat cat C). MMSI: 538004019.

Date/timePositionNaut miles runAvg speedWind from/ knotsBaromVisibWave heightAir tempDewpointWater temp
2015-Aug-02 21:19N 34°25' E 020°28'14015.4
2015-Aug-02 12:12N 35°18' E 017°50'1015.5
2015-Aug-02 11:32N 35°22' E 017°38'1515.8
2015-Aug-02 10:33N 35°28' E 017°21'1616.0
2015-Aug-02 09:33N 35°34' E 017°03'1616.0
2015-Aug-02 08:33N 35°40' E 016°45'1615.9
2015-Aug-02 07:33N 35°46' E 016°26'1515.5
2015-Aug-02 06:33N 35°52' E 016°09'1615.6
2015-Aug-02 05:33N 35°58' E 015°51'3515.7
2015-Aug-02 03:17N 36°11' E 015°10'1216.2
2015-Aug-02 02:33N 36°16' E 014°57'1716.6
2015-Aug-02 01:33N 36°22' E 014°38'1716.7
2015-Aug-02 00:33N 36°30' E 014°19'1716.6
2015-Aug-01 23:33N 36°39' E 014°02'1716.8
2015-Aug-01 22:33N 36°48' E 013°44'1717.4
2015-Aug-01 21:33N 36°58' E 013°26'1717.0
2015-Aug-01 20:33N 37°06' E 013°08'1717.1
2015-Aug-01 19:33N 37°16' E 012°50'1716.7
2015-Aug-01 18:33N 37°25' E 012°33'1616.0
2015-Aug-01 17:33N 37°33' E 012°15'1615.5
2015-Aug-01 16:33N 37°42' E 011°59'1615.7
2015-Aug-01 15:33N 37°50' E 011°42'1515.2
2015-Aug-01 14:33N 37°59' E 011°26'1515.2
2015-Aug-01 13:33N 38°07' E 011°10'1615.8
2015-Aug-01 12:33N 38°15' E 010°53'2015.9
2015-Aug-01 11:16N 38°26' E 010°31'1515.6
2015-Aug-01 10:17N 38°35' E 010°14'1315.0
2015-Aug-01 09:26N 38°41' E 010°00'1315.1
2015-Aug-01 08:33N 38°49' E 009°46'1515.0
2015-Aug-01 07:33N 38°56' E 009°30'1616.0
2015-Aug-01 06:33N 39°05' E 009°12'10 9.9
2015-Aug-01 05:33N 39°13' E 009°04'0 0.0
2015-Aug-01 04:33N 39°13' E 009°04'0 0.0
2015-Aug-01 03:33N 39°13' E 009°04'0 0.0
2015-Aug-01 02:33N 39°13' E 009°04'0 0.0
2015-Aug-01 01:33N 39°13' E 009°04'0 0.0
2015-Aug-01 00:33N 39°13' E 009°04'0 0.0
2015-Jul-31 23:33N 39°13' E 009°04'0 0.0
2015-Jul-31 22:33N 39°13' E 009°04'0 0.0
2015-Jul-31 21:33N 39°13' E 009°04'0 0.0
2015-Jul-31 20:33N 39°13' E 009°04'0 0.0
2015-Jul-31 19:33N 39°13' E 009°04'0 0.0
2015-Jul-31 18:33N 39°13' E 009°04'0 0.0
2015-Jul-31 17:33N 39°13' E 009°04'0 0.0
2015-Jul-31 16:33N 39°13' E 009°04'0 0.0
2015-Jul-31 15:33N 39°13' E 009°04'0 0.0
2015-Jul-31 11:33N 39°13' E 009°04'0 0.0
2015-Jul-31 10:33N 39°13' E 009°04'0 0.0
2015-Jul-31 09:33N 39°13' E 009°04'0 0.0
2015-Jul-31 08:33N 39°13' E 009°04'0 0.0
2015-Jul-31 06:15N 39°13' E 009°04'0 0.0
2015-Jul-31 05:33N 39°13' E 009°04'0 0.0
2015-Jul-31 04:33N 39°13' E 009°04'0 0.0
2015-Jul-31 03:33N 39°13' E 009°04'0 0.0
2015-Jul-31 02:33N 39°13' E 009°04'7 6.8
2015-Jul-31 01:33N 39°07' E 009°08'1313.4
2015-Jul-31 00:33N 39°01' E 009°24'1312.6
2015-Jul-30 23:33N 39°01' E 009°40'7113.6
2015-Jul-30 18:21N 39°28' E 011°04'5414.2
2015-Jul-30 14:32N 39°49' E 012°09'7714.8
2015-Jul-30 09:20N 40°18' E 013°43'1315.5
2015-Jul-30 08:32N 40°22' E 013°58'1615.7
2015-Jul-30 07:32N 40°29' E 014°17'1615.6
2015-Jul-30 06:31N 40°34' E 014°36'14 0.9
2015-Jul-29 15:33N 40°35' E 014°18'1515.0
2015-Jul-29 14:33N 40°50' E 014°17'0 0.5
2015-Jul-29 13:31N 40°50' E 014°17'0 0.0
2015-Jul-29 12:07N 40°50' E 014°17'0 0.0
2015-Jul-29 11:28N 40°50' E 014°17'0 0.0
2015-Jul-29 10:28N 40°50' E 014°17'0 0.0
2015-Jul-29 09:28N 40°50' E 014°17'0 0.0
2015-Jul-29 08:31N 40°50' E 014°17'0 0.1
2015-Jul-29 07:18N 40°50' E 014°17'2 3.2
2015-Jul-29 06:33N 40°48' E 014°16'9 8.9
2015-Jul-29 05:33N 40°42' E 014°08'2016.1
2015-Jul-29 04:20N 40°41' E 013°41'1317.0
2015-Jul-29 03:32N 40°43' E 013°24'17016.7
2015-Jul-28 17:22N 42°28' E 010°25'2815.4
2015-Jul-28 15:33N 42°52' E 010°04'1817.5
2015-Jul-28 14:33N 43°09' E 010°09'1716.6
2015-Jul-28 13:33N 43°25' E 010°12'1010.0
2015-Jul-28 12:33N 43°34' E 010°18'1 0.6
2015-Jul-28 11:32N 43°35' E 010°18'0 0.0
2015-Jul-28 10:32N 43°35' E 010°18'0 0.0
2015-Jul-28 09:32N 43°35' E 010°18'0 0.0
2015-Jul-28 08:32N 43°35' E 010°18'0 0.0
2015-Jul-28 07:32N 43°35' E 010°18'0 0.0
2015-Jul-28 06:32N 43°35' E 010°18'0 0.0
2015-Jul-28 05:32N 43°35' E 010°18'1 0.9
2015-Jul-28 04:33N 43°34' E 010°18'7 7.1
2015-Jul-28 03:33N 43°28' E 010°12'1414.3
2015-Jul-28 02:33N 43°18' E 009°58'8 8.4
2015-Jul-28 01:33N 43°13' E 009°49'5 4.6
2015-Jul-28 00:33N 43°17' E 009°47'4 4.1
2015-Jul-27 23:33N 43°21' E 009°45'4 4.0
2015-Jul-27 22:33N 43°25' E 009°42'4 4.0
2015-Jul-27 21:33N 43°29' E 009°40'5 4.7
2015-Jul-27 20:33N 43°33' E 009°37'1515.3
2015-Jul-27 19:33N 43°46' E 009°26'1615.6
2015-Jul-27 18:33N 43°58' E 009°13'1615.7
2015-Jul-27 17:33N 44°10' E 008°59'1515.4
2015-Jul-27 16:33N 44°21' E 008°44'4 4.2
2015-Jul-27 15:31N 44°25' E 008°47'0 0.0
2015-Jul-27 14:31N 44°25' E 008°47'0 0.0
2015-Jul-27 13:31N 44°25' E 008°47'0 0.0
2015-Jul-27 12:31N 44°25' E 008°47'0 0.0
2015-Jul-27 11:25N 44°25' E 008°47'0 0.0
2015-Jul-27 10:31N 44°25' E 008°47'0 0.0
2015-Jul-27 09:31N 44°25' E 008°47'0 0.0
2015-Jul-27 08:31N 44°25' E 008°47'0 0.0
2015-Jul-27 07:31N 44°25' E 008°47'0 0.0
2015-Jul-27 06:31N 44°25' E 008°47'0 0.0
2015-Jul-27 05:31N 44°25' E 008°47'0 0.0
2015-Jul-27 04:31N 44°25' E 008°47'0 0.1
2015-Jul-27 03:33N 44°25' E 008°47'7 7.4
2015-Jul-27 02:33N 44°18' E 008°48'1717.2
2015-Jul-27 01:34N 44°03' E 008°60'30416.0
2015-Jul-26 06:31N 38°59' E 009°32'1717.8
2015-Jul-26 05:33N 39°06' E 009°12'9 8.9
2015-Jul-26 04:32N 39°13' E 009°04'0 0.0
2015-Jul-26 03:32N 39°13' E 009°04'0 0.0
2015-Jul-26 02:32N 39°13' E 009°04'0 0.0
2015-Jul-26 01:32N 39°13' E 009°04'0 0.0
2015-Jul-26 00:32N 39°13' E 009°04'0 0.0
2015-Jul-25 23:32N 39°13' E 009°04'0 0.0
2015-Jul-25 22:32N 39°13' E 009°04'0 0.0
2015-Jul-25 21:32N 39°13' E 009°04'0 0.0
2015-Jul-25 20:32N 39°13' E 009°04'0 0.0
2015-Jul-25 19:32N 39°13' E 009°04'0 0.0
2015-Jul-25 18:32N 39°13' E 009°04'0 0.0
2015-Jul-25 17:32N 39°13' E 009°04'0 0.0
2015-Jul-25 16:32N 39°13' E 009°04'0 0.0
2015-Jul-25 15:32N 39°13' E 009°04'0 0.0
2015-Jul-25 14:32N 39°13' E 009°04'0 0.0
2015-Jul-25 13:32N 39°13' E 009°04'0 0.0
2015-Jul-25 12:32N 39°13' E 009°04'0 0.0
2015-Jul-25 11:32N 39°13' E 009°04'0 0.1
2015-Jul-25 10:33N 39°13' E 009°04'5 5.2
2015-Jul-25 09:34N 39°08' E 009°07'1313.3
2015-Jul-25 08:33N 39°00' E 009°21'16116.1
2015-Jul-24 22:33N 37°34' E 012°14'1616.3
2015-Jul-24 21:33N 37°25' E 012°32'1616.2
2015-Jul-24 20:33N 37°17' E 012°49'1615.8
2015-Jul-24 19:33N 37°08' E 013°06'1615.9
2015-Jul-24 18:33N 36°60' E 013°22'1615.7
2015-Jul-24 17:33N 36°52' E 013°40'1615.8
2015-Jul-24 16:33N 36°44' E 013°57'1616.0
2015-Jul-24 15:33N 36°37' E 014°14'1615.8
2015-Jul-24 14:33N 36°29' E 014°32'1615.6
2015-Jul-24 13:31N 36°24' E 014°51'  

Dump ship's entire track history